Station Historical Data
Daily Summary for March 11, 2017 Units:  English    Metric   Both
« Previous Day
Next Day »
Daily Weekly Monthly Yearly Custom
  High: Low: Average:
Temperature: 20.8 °F 13.8 °F 16.9 °F
Dew Point: 14.4 °F 5.8 °F 9.7 °F
Humidity: 86% 57% 73%
Wind Speed: 16.0mph 0.0mph 6.5mph
Wind Gust: 25.0mph - -
Wind- - WNW
Pressure: 30.39 in 30.20 in -
Precipitation: 0.00 in    
Historical Graphs
 
 
Tabular Data for March 11, 2017
Time Temperature Dew Point Pressure Wind Wind Speed Wind Gust Humidity Rainfall Rate (Hourly)
00:04 14.4 °F 8.2 °F 30.21 in West 8.0 mph 17.0 mph 76% 0.00 in
00:09 14.2 °F 8.0 °F 30.21 in West 8.0 mph 17.0 mph 76% 0.00 in
00:14 14.3 °F 8.1 °F 30.21 in West 7.0 mph 15.0 mph 76% 0.00 in
00:19 14.4 °F 7.9 °F 30.21 in WNW 8.0 mph 20.0 mph 75% 0.00 in
00:24 14.5 °F 7.7 °F 30.21 in West 11.0 mph 16.0 mph 74% 0.00 in
00:29 14.5 °F 8.0 °F 30.22 in West 5.0 mph 13.0 mph 75% 0.00 in
00:34 14.5 °F 7.4 °F 30.21 in West 8.0 mph 18.0 mph 73% 0.00 in
00:39 14.8 °F 7.1 °F 30.21 in West 9.0 mph 18.0 mph 71% 0.00 in
00:44 14.8 °F 7.1 °F 30.21 in West 6.0 mph 16.0 mph 71% 0.00 in
00:49 14.8 °F 6.8 °F 30.21 in West 8.0 mph 17.0 mph 70% 0.00 in
00:54 14.8 °F 6.8 °F 30.21 in NW 8.0 mph 16.0 mph 70% 0.00 in
00:59 14.6 °F 7.5 °F 30.21 in West 11.0 mph 19.0 mph 73% 0.00 in
01:04 14.6 °F 6.9 °F 30.20 in West 10.0 mph 18.0 mph 71% 0.00 in
01:09 14.6 °F 7.2 °F 30.21 in West 10.0 mph 25.0 mph 72% 0.00 in
01:14 14.6 °F 6.6 °F 30.21 in West 8.0 mph 25.0 mph 70% 0.00 in
01:19 14.8 °F 6.5 °F 30.21 in WNW 4.0 mph 18.0 mph 69% 0.00 in
01:24 14.9 °F 6.6 °F 30.21 in West 8.0 mph 18.0 mph 69% 0.00 in
01:29 14.8 °F 6.5 °F 30.21 in West 12.0 mph 13.0 mph 69% 0.00 in
01:34 14.8 °F 6.1 °F 30.21 in WNW 9.0 mph 18.0 mph 68% 0.00 in
01:39 14.7 °F 6.0 °F 30.21 in West 9.0 mph 18.0 mph 68% 0.00 in
01:44 14.5 °F 6.8 °F 30.21 in West 9.0 mph 18.0 mph 71% 0.00 in
01:49 14.4 °F 6.7 °F 30.21 in West 11.0 mph 18.0 mph 71% 0.00 in
01:54 14.5 °F 7.1 °F 30.21 in West 9.0 mph 18.0 mph 72% 0.00 in
01:59 14.6 °F 6.9 °F 30.21 in West 10.0 mph 17.0 mph 71% 0.00 in
02:04 14.8 °F 6.8 °F 30.21 in West 9.0 mph 17.0 mph 70% 0.00 in
02:09 14.6 °F 6.0 °F 30.21 in West 8.0 mph 19.0 mph 68% 0.00 in
02:14 14.5 °F 5.9 °F 30.20 in West 12.0 mph 16.0 mph 68% 0.00 in
02:19 14.5 °F 5.9 °F 30.20 in West 6.0 mph 15.0 mph 68% 0.00 in
02:24 14.5 °F 5.9 °F 30.21 in West 7.0 mph 17.0 mph 68% 0.00 in
02:29 14.5 °F 5.9 °F 30.20 in WNW 8.0 mph 15.0 mph 68% 0.00 in
02:34 14.4 °F 5.8 °F 30.20 in West 11.0 mph 14.0 mph 68% 0.00 in
02:39 14.5 °F 5.9 °F 30.21 in West 4.0 mph 13.0 mph 68% 0.00 in
02:44 14.4 °F 6.1 °F 30.20 in West 7.0 mph 21.0 mph 69% 0.00 in
02:49 14.4 °F 6.1 °F 30.20 in West 7.0 mph 21.0 mph 69% 0.00 in
02:54 14.5 °F 6.2 °F 30.20 in West 6.0 mph 15.0 mph 69% 0.00 in
02:59 14.5 °F 6.2 °F 30.20 in West 7.0 mph 16.0 mph 69% 0.00 in
03:04 14.6 °F 6.3 °F 30.21 in West 8.0 mph 18.0 mph 69% 0.00 in
03:09 14.5 °F 6.2 °F 30.21 in West 8.0 mph 19.0 mph 69% 0.00 in
03:14 14.5 °F 6.2 °F 30.21 in WNW 7.0 mph 17.0 mph 69% 0.00 in
03:19 14.6 °F 6.3 °F 30.21 in West 8.0 mph 17.0 mph 69% 0.00 in
03:24 14.6 °F 6.3 °F 30.21 in West 8.0 mph 20.0 mph 69% 0.00 in
03:29 14.6 °F 6.6 °F 30.21 in WNW 4.0 mph 15.0 mph 70% 0.00 in
03:34 14.5 °F 6.5 °F 30.21 in West 8.0 mph 22.0 mph 70% 0.00 in
03:39 14.4 °F 7.0 °F 30.21 in West 12.0 mph 18.0 mph 72% 0.00 in
03:44 14.5 °F 7.1 °F 30.21 in WSW 11.0 mph 14.0 mph 72% 0.00 in
03:49 14.5 °F 6.8 °F 30.21 in West 8.0 mph 14.0 mph 71% 0.00 in
03:54 14.5 °F 7.1 °F 30.21 in West 9.0 mph 15.0 mph 72% 0.00 in
03:59 14.4 °F 7.3 °F 30.22 in West 9.0 mph 16.0 mph 73% 0.00 in
04:04 14.4 °F 7.6 °F 30.22 in West 8.0 mph 16.0 mph 74% 0.00 in
04:09 14.5 °F 7.7 °F 30.22 in WNW 9.0 mph 18.0 mph 74% 0.00 in
04:14 14.6 °F 7.8 °F 30.22 in West 6.0 mph 14.0 mph 74% 0.00 in
04:19 14.6 °F 7.8 °F 30.22 in West 5.0 mph 18.0 mph 74% 0.00 in
04:24 14.5 °F 8.3 °F 30.22 in WNW 7.0 mph 18.0 mph 76% 0.00 in
04:29 14.2 °F 8.3 °F 30.23 in West 10.0 mph 14.0 mph 77% 0.00 in
04:34 14.1 °F 8.5 °F 30.23 in West 9.0 mph 14.0 mph 78% 0.00 in
04:39 14.1 °F 8.8 °F 30.22 in WNW 6.0 mph 11.0 mph 79% 0.00 in
04:44 14.1 °F 8.8 °F 30.23 in West 6.0 mph 14.0 mph 79% 0.00 in
04:49 14.0 °F 8.7 °F 30.23 in West 9.0 mph 13.0 mph 79% 0.00 in
04:54 14.1 °F 8.8 °F 30.23 in WNW 7.0 mph 14.0 mph 79% 0.00 in
04:59 14.1 °F 9.1 °F 30.23 in WNW 7.0 mph 14.0 mph 80% 0.00 in
05:04 14.0 °F 9.0 °F 30.23 in WNW 6.0 mph 12.0 mph 80% 0.00 in
05:09 13.9 °F 8.6 °F 30.23 in WNW 6.0 mph 14.0 mph 79% 0.00 in
05:14 13.9 °F 8.3 °F 30.23 in WNW 7.0 mph 14.0 mph 78% 0.00 in
05:19 13.8 °F 7.9 °F 30.23 in West 6.0 mph 14.0 mph 77% 0.00 in
05:24 13.9 °F 7.7 °F 30.23 in West 8.0 mph 13.0 mph 76% 0.00 in
05:29 14.0 °F 7.8 °F 30.23 in West 6.0 mph 13.0 mph 76% 0.00 in
05:34 14.1 °F 7.9 °F 30.24 in West 7.0 mph 13.0 mph 76% 0.00 in
05:39 14.1 °F 7.6 °F 30.23 in West 9.0 mph 11.0 mph 75% 0.00 in
05:44 14.0 °F 7.5 °F 30.23 in WNW 7.0 mph 13.0 mph 75% 0.00 in
05:49 14.0 °F 7.5 °F 30.24 in West 5.0 mph 16.0 mph 75% 0.00 in
05:54 13.9 °F 7.7 °F 30.23 in West 7.0 mph 13.0 mph 76% 0.00 in
05:59 13.9 °F 7.7 °F 30.23 in WNW 7.0 mph 17.0 mph 76% 0.00 in
06:04 13.8 °F 7.6 °F 30.24 in WNW 7.0 mph 17.0 mph 76% 0.00 in
06:09 13.9 °F 7.7 °F 30.24 in West 7.0 mph 15.0 mph 76% 0.00 in
06:14 13.9 °F 8.0 °F 30.24 in West 7.0 mph 15.0 mph 77% 0.00 in
06:19 14.0 °F 8.4 °F 30.24 in West 7.0 mph 15.0 mph 78% 0.00 in
06:24 14.0 °F 8.4 °F 30.24 in West 9.0 mph 15.0 mph 78% 0.00 in
06:29 14.1 °F 8.8 °F 30.24 in West 7.0 mph 12.0 mph 79% 0.00 in
06:34 14.2 °F 8.9 °F 30.24 in WNW 6.0 mph 13.0 mph 79% 0.00 in
06:39 14.2 °F 8.9 °F 30.24 in West 7.0 mph 14.0 mph 79% 0.00 in
06:44 14.4 °F 9.1 °F 30.25 in West 7.0 mph 14.0 mph 79% 0.00 in
06:49 14.5 °F 8.9 °F 30.25 in NW 5.0 mph 13.0 mph 78% 0.00 in
06:54 14.5 °F 8.9 °F 30.25 in West 5.0 mph 11.0 mph 78% 0.00 in
06:59 14.6 °F 9.3 °F 30.25 in NW 6.0 mph 10.0 mph 79% 0.00 in
07:04 14.6 °F 9.6 °F 30.25 in West 8.0 mph 11.0 mph 80% 0.00 in
07:09 14.7 °F 9.9 °F 30.25 in WNW 5.0 mph 13.0 mph 81% 0.00 in
07:14 14.8 °F 10.0 °F 30.25 in West 6.0 mph 13.0 mph 81% 0.00 in
07:19 15.0 °F 10.2 °F 30.25 in West 6.0 mph 11.0 mph 81% 0.00 in
07:24 15.0 °F 10.5 °F 30.25 in WNW 6.0 mph 11.0 mph 82% 0.00 in
07:29 15.0 °F 10.5 °F 30.26 in WNW 5.0 mph 11.0 mph 82% 0.00 in
07:34 14.9 °F 10.4 °F 30.26 in WNW 7.0 mph 11.0 mph 82% 0.00 in
07:39 15.0 °F 10.8 °F 30.26 in West 7.0 mph 12.0 mph 83% 0.00 in
07:44 15.0 °F 10.8 °F 30.26 in NW 7.0 mph 10.0 mph 83% 0.00 in
07:49 15.2 °F 11.0 °F 30.26 in WNW 10.0 mph 13.0 mph 83% 0.00 in
07:54 15.1 °F 10.9 °F 30.27 in WNW 11.0 mph 13.0 mph 83% 0.00 in
07:59 15.1 °F 10.9 °F 30.27 in West 9.0 mph 14.0 mph 83% 0.00 in
08:04 15.2 °F 10.7 °F 30.27 in NW 7.0 mph 14.0 mph 82% 0.00 in
08:09 15.2 °F 10.1 °F 30.27 in NW 6.0 mph 16.0 mph 80% 0.00 in
08:14 15.3 °F 10.2 °F 30.27 in West 4.0 mph 14.0 mph 80% 0.00 in
08:19 15.5 °F 10.7 °F 30.27 in WNW 4.0 mph 13.0 mph 81% 0.00 in
08:24 15.6 °F 10.8 °F 30.27 in WNW 7.0 mph 13.0 mph 81% 0.00 in
08:29 15.6 °F 10.5 °F 30.27 in WNW 7.0 mph 13.0 mph 80% 0.00 in
08:34 15.9 °F 10.8 °F 30.28 in WNW 6.0 mph 13.0 mph 80% 0.00 in
08:39 16.2 °F 11.1 °F 30.28 in WNW 5.0 mph 12.0 mph 80% 0.00 in
08:44 16.1 °F 10.4 °F 30.28 in NW 7.0 mph 12.0 mph 78% 0.00 in
08:49 16.2 °F 10.8 °F 30.28 in WNW 6.0 mph 11.0 mph 79% 0.00 in
08:54 16.2 °F 10.5 °F 30.28 in NW 6.0 mph 13.0 mph 78% 0.00 in
08:59 16.4 °F 10.2 °F 30.28 in WSW 6.0 mph 12.0 mph 76% 0.00 in
09:04 16.4 °F 10.2 °F 30.28 in NW 5.0 mph 10.0 mph 76% 0.00 in
09:09 16.4 °F 10.4 °F 30.29 in NW 7.0 mph 17.0 mph 77% 0.00 in
09:14 16.4 °F 10.7 °F 30.29 in NNW 6.0 mph 9.0 mph 78% 0.00 in
09:19 16.2 °F 11.1 °F 30.29 in NW 2.0 mph 7.0 mph 80% 0.00 in
09:24 16.3 °F 11.5 °F 30.29 in NW 4.0 mph 13.0 mph 81% 0.00 in
09:29 16.1 °F 11.0 °F 30.29 in NW 5.0 mph 16.0 mph 80% 0.00 in
09:34 15.1 °F 10.0 °F 30.29 in NW 6.0 mph 16.0 mph 80% 0.00 in
09:39 15.0 °F 10.2 °F 30.30 in NW 6.0 mph 12.0 mph 81% 0.00 in
09:44 15.1 °F 10.6 °F 30.30 in NW 6.0 mph 12.0 mph 82% 0.00 in
09:49 15.4 °F 10.3 °F 30.30 in NW 6.0 mph 12.0 mph 80% 0.00 in
09:54 15.5 °F 10.4 °F 30.30 in NW 6.0 mph 14.0 mph 80% 0.00 in
09:59 15.8 °F 10.7 °F 30.30 in NW 5.0 mph 14.0 mph 80% 0.00 in
10:04 16.3 °F 10.6 °F 30.30 in NW 5.0 mph 13.0 mph 78% 0.00 in
10:09 16.4 °F 11.0 °F 30.30 in West 6.0 mph 9.0 mph 79% 0.00 in
10:14 16.9 °F 11.2 °F 30.30 in NNW 7.0 mph 12.0 mph 78% 0.00 in
10:19 17.3 °F 11.3 °F 30.30 in NW 3.0 mph 9.0 mph 77% 0.00 in
10:24 17.3 °F 9.8 °F 30.30 in NW 2.0 mph 11.0 mph 72% 0.00 in
10:29 17.5 °F 9.4 °F 30.30 in North 5.0 mph 13.0 mph 70% 0.00 in
10:34 17.2 °F 8.4 °F 30.30 in WNW 6.0 mph 13.0 mph 68% 0.00 in
10:39 17.9 °F 8.1 °F 30.30 in WNW 7.0 mph 15.0 mph 65% 0.00 in
10:44 17.5 °F 7.7 °F 30.30 in WNW 8.0 mph 15.0 mph 65% 0.00 in
10:49 17.5 °F 7.7 °F 30.30 in WNW 8.0 mph 14.0 mph 65% 0.00 in
10:54 17.7 °F 7.2 °F 30.30 in WNW 7.0 mph 13.0 mph 63% 0.00 in
10:59 17.9 °F 7.4 °F 30.30 in WNW 8.0 mph 13.0 mph 63% 0.00 in
11:04 18.8 °F 9.0 °F 30.30 in WNW 6.0 mph 13.0 mph 65% 0.00 in
11:09 19.2 °F 8.7 °F 30.30 in WNW 5.0 mph 11.0 mph 63% 0.00 in
11:14 18.5 °F 7.6 °F 30.30 in WNW 6.0 mph 12.0 mph 62% 0.01 in
11:19 18.5 °F 7.3 °F 30.30 in West 10.0 mph 13.0 mph 61% 0.01 in
11:24 18.8 °F 7.9 °F 30.30 in NNW 9.0 mph 14.0 mph 62% 0.01 in
11:29 18.2 °F 6.6 °F 30.30 in North 9.0 mph 16.0 mph 60% 0.02 in
11:34 18.0 °F 6.4 °F 30.30 in West 9.0 mph 12.0 mph 60% 0.02 in
11:39 18.3 °F 6.7 °F 30.30 in NW 6.0 mph 12.0 mph 60% 0.02 in
11:44 18.3 °F 6.7 °F 30.30 in NW 6.0 mph 16.0 mph 60% 0.02 in
11:49 18.3 °F 7.1 °F 30.30 in NW 6.0 mph 16.0 mph 61% 0.02 in
11:54 18.6 °F 8.1 °F 30.30 in NW 5.0 mph 11.0 mph 63% 0.02 in
11:59 18.4 °F 7.5 °F 30.30 in WNW 7.0 mph 14.0 mph 62% 0.02 in
12:04 18.5 °F 8.0 °F 30.31 in West 7.0 mph 14.0 mph 63% 0.02 in
12:09 19.1 °F 8.6 °F 30.31 in WNW 6.0 mph 14.0 mph 63% 0.02 in
12:14 18.9 °F 8.4 °F 30.31 in WNW 6.0 mph 13.0 mph 63% 0.01 in
12:19 19.1 °F 8.9 °F 30.31 in WNW 7.0 mph 13.0 mph 64% 0.01 in
12:24 19.0 °F 8.8 °F 30.31 in NW 6.0 mph 13.0 mph 64% 0.01 in
12:29 19.2 °F 8.7 °F 30.31 in WSW 11.0 mph 15.0 mph 63% 0.00 in
12:34 19.9 °F 8.6 °F 30.31 in NW 5.0 mph 14.0 mph 61% 0.00 in
12:39 20.8 °F 8.3 °F 30.31 in NNW 8.0 mph 17.0 mph 58% 0.00 in
12:44 20.5 °F 7.7 °F 30.30 in WNW 7.0 mph 17.0 mph 57% 0.00 in
12:49 20.2 °F 7.4 °F 30.30 in NW 6.0 mph 14.0 mph 57% 0.00 in
12:54 19.8 °F 7.4 °F 30.31 in NW 7.0 mph 14.0 mph 58% 0.00 in
12:59 19.9 °F 7.5 °F 30.31 in NW 8.0 mph 13.0 mph 58% 0.00 in
13:04 19.7 °F 7.3 °F 30.30 in NW 10.0 mph 12.0 mph 58% 0.00 in
13:09 20.0 °F 8.0 °F 30.30 in WNW 9.0 mph 12.0 mph 59% 0.00 in
13:14 19.8 °F 7.8 °F 30.30 in WNW 5.0 mph 12.0 mph 59% 0.00 in
13:19 19.6 °F 8.0 °F 30.30 in WNW 6.0 mph 12.0 mph 60% 0.00 in
13:24 19.7 °F 7.7 °F 30.30 in WNW 6.0 mph 12.0 mph 59% 0.00 in
13:29 20.0 °F 8.7 °F 30.30 in NW 6.0 mph 12.0 mph 61% 0.00 in
13:34 20.4 °F 8.3 °F 30.30 in WNW 6.0 mph 13.0 mph 59% 0.00 in
13:39 19.9 °F 7.5 °F 30.30 in WNW 8.0 mph 18.0 mph 58% 0.00 in
13:44 19.7 °F 7.7 °F 30.30 in WNW 5.0 mph 20.0 mph 59% 0.00 in
13:49 19.9 °F 7.9 °F 30.30 in WNW 8.0 mph 20.0 mph 59% 0.00 in
13:54 19.8 °F 8.9 °F 30.30 in NW 6.0 mph 11.0 mph 62% 0.00 in
13:59 19.9 °F 8.6 °F 30.30 in West 16.0 mph 18.0 mph 61% 0.00 in
14:04 19.6 °F 8.0 °F 30.30 in NW 9.0 mph 18.0 mph 60% 0.00 in
14:09 19.8 °F 8.1 °F 30.30 in SW 10.0 mph 15.0 mph 60% 0.00 in
14:14 19.6 °F 8.3 °F 30.30 in West 7.0 mph 18.0 mph 61% 0.00 in
14:19 19.5 °F 8.2 °F 30.30 in WNW 9.0 mph 14.0 mph 61% 0.00 in
14:24 19.8 °F 7.8 °F 30.30 in West 7.0 mph 16.0 mph 59% 0.00 in
14:29 20.6 °F 8.5 °F 30.30 in WNW 8.0 mph 16.0 mph 59% 0.00 in
14:34 20.4 °F 8.0 °F 30.30 in WNW 10.0 mph 16.0 mph 58% 0.00 in
14:39 20.7 °F 8.6 °F 30.30 in WNW 9.0 mph 16.0 mph 59% 0.00 in
14:44 20.5 °F 8.0 °F 30.31 in WNW 9.0 mph 20.0 mph 58% 0.00 in
14:49 20.4 °F 7.6 °F 30.31 in West 8.0 mph 20.0 mph 57% 0.00 in
14:54 20.5 °F 8.4 °F 30.31 in WNW 7.0 mph 21.0 mph 59% 0.00 in
14:59 20.5 °F 9.2 °F 30.31 in WNW 6.0 mph 16.0 mph 61% 0.00 in
15:04 19.9 °F 9.0 °F 30.31 in SW 7.0 mph 19.0 mph 62% 0.00 in
15:09 19.9 °F 8.6 °F 30.31 in WNW 6.0 mph 16.0 mph 61% 0.00 in
15:14 19.7 °F 9.5 °F 30.31 in WNW 8.0 mph 16.0 mph 64% 0.00 in
15:19 19.7 °F 9.8 °F 30.31 in West 6.0 mph 14.0 mph 65% 0.00 in
15:24 20.2 °F 9.6 °F 30.31 in West 4.0 mph 18.0 mph 63% 0.00 in
15:29 20.4 °F 9.8 °F 30.31 in West 8.0 mph 18.0 mph 63% 0.00 in
15:34 20.6 °F 10.7 °F 30.31 in West 8.0 mph 18.0 mph 65% 0.00 in
15:39 20.0 °F 9.4 °F 30.32 in West 9.0 mph 18.0 mph 63% 0.00 in
15:44 20.0 °F 9.8 °F 30.31 in West 9.0 mph 18.0 mph 64% 0.00 in
15:49 20.3 °F 9.3 °F 30.31 in WNW 9.0 mph 17.0 mph 62% 0.00 in
15:54 20.4 °F 9.1 °F 30.31 in WNW 9.0 mph 18.0 mph 61% 0.00 in
15:59 20.5 °F 8.8 °F 30.31 in WNW 8.0 mph 22.0 mph 60% 0.00 in
16:04 20.3 °F 8.2 °F 30.31 in West 9.0 mph 19.0 mph 59% 0.00 in
16:09 20.4 °F 9.1 °F 30.31 in West 7.0 mph 16.0 mph 61% 0.00 in
16:14 20.4 °F 9.1 °F 30.31 in NW 5.0 mph 17.0 mph 61% 0.00 in
16:19 20.2 °F 9.2 °F 30.32 in NW 11.0 mph 15.0 mph 62% 0.00 in
16:24 20.3 °F 9.7 °F 30.32 in WNW 4.0 mph 13.0 mph 63% 0.00 in
16:29 20.2 °F 9.6 °F 30.32 in NW 8.0 mph 15.0 mph 63% 0.00 in
16:34 20.0 °F 10.1 °F 30.31 in WNW 7.0 mph 16.0 mph 65% 0.00 in
16:39 20.1 °F 10.6 °F 30.32 in NW 6.0 mph 16.0 mph 66% 0.00 in
16:44 19.9 °F 10.4 °F 30.32 in NW 6.0 mph 14.0 mph 66% 0.00 in
16:49 19.6 °F 11.1 °F 30.32 in NW 6.0 mph 14.0 mph 69% 0.00 in
16:54 19.5 °F 11.9 °F 30.32 in NW 5.0 mph 13.0 mph 72% 0.00 in
16:59 19.4 °F 11.5 °F 30.32 in WNW 4.0 mph 15.0 mph 71% 0.00 in
17:04 19.4 °F 11.8 °F 30.33 in NW 7.0 mph 15.0 mph 72% 0.00 in
17:09 19.2 °F 11.6 °F 30.33 in NW 7.0 mph 18.0 mph 72% 0.00 in
17:14 18.8 °F 12.5 °F 30.33 in NW 5.0 mph 11.0 mph 76% 0.00 in
17:19 18.5 °F 12.8 °F 30.33 in WNW 5.0 mph 11.0 mph 78% 0.00 in
17:24 18.5 °F 12.8 °F 30.33 in West 5.0 mph 13.0 mph 78% 0.00 in
17:29 18.8 °F 13.1 °F 30.33 in NW 6.0 mph 12.0 mph 78% 0.00 in
17:34 18.9 °F 12.6 °F 30.33 in NW 6.0 mph 14.0 mph 76% 0.00 in
17:39 18.9 °F 12.3 °F 30.33 in West 7.0 mph 14.0 mph 75% 0.00 in
17:44 18.8 °F 12.5 °F 30.33 in West 7.0 mph 13.0 mph 76% 0.00 in
17:49 18.5 °F 12.5 °F 30.33 in WNW 6.0 mph 12.0 mph 77% 0.00 in
17:54 18.4 °F 12.4 °F 30.33 in WNW 6.0 mph 12.0 mph 77% 0.00 in
17:59 18.6 °F 12.3 °F 30.33 in WNW 2.0 mph 10.0 mph 76% 0.00 in
18:04 18.9 °F 12.3 °F 30.33 in WNW 4.0 mph 11.0 mph 75% 0.00 in
18:09 19.2 °F 11.6 °F 30.33 in WNW 5.0 mph 11.0 mph 72% 0.00 in
18:14 19.2 °F 10.7 °F 30.33 in WNW 7.0 mph 12.0 mph 69% 0.00 in
18:19 19.0 °F 10.2 °F 30.33 in WNW 6.0 mph 12.0 mph 68% 0.00 in
18:24 18.8 °F 10.6 °F 30.33 in NNW 4.0 mph 16.0 mph 70% 0.00 in
18:29 18.5 °F 11.0 °F 30.33 in NNW 10.0 mph 14.0 mph 72% 0.00 in
18:34 18.6 °F 11.4 °F 30.34 in NNW 6.0 mph 12.0 mph 73% 0.00 in
18:39 18.6 °F 11.7 °F 30.34 in West 5.0 mph 13.0 mph 74% 0.00 in
18:44 18.5 °F 11.3 °F 30.34 in NW 6.0 mph 13.0 mph 73% 0.00 in
18:49 18.2 °F 11.0 °F 30.34 in NW 6.0 mph 13.0 mph 73% 0.00 in
18:54 18.0 °F 11.4 °F 30.34 in NW 6.0 mph 13.0 mph 75% 0.00 in
18:59 17.8 °F 11.8 °F 30.35 in NW 5.0 mph 16.0 mph 77% 0.00 in
19:04 17.6 °F 12.2 °F 30.35 in NW 7.0 mph 18.0 mph 79% 0.00 in
19:09 17.2 °F 12.4 °F 30.36 in NW 7.0 mph 18.0 mph 81% 0.00 in
19:14 17.1 °F 12.8 °F 30.36 in WNW 9.0 mph 11.0 mph 83% 0.00 in
19:19 17.1 °F 12.8 °F 30.36 in WNW 3.0 mph 10.0 mph 83% 0.00 in
19:24 17.1 °F 12.8 °F 30.36 in West 8.0 mph 10.0 mph 83% 0.00 in
19:29 17.0 °F 12.7 °F 30.36 in West 8.0 mph 15.0 mph 83% 0.00 in
19:34 17.1 °F 12.8 °F 30.36 in West 8.0 mph 14.0 mph 83% 0.00 in
19:39 17.2 °F 12.6 °F 30.36 in WNW 6.0 mph 14.0 mph 82% 0.00 in
19:44 17.2 °F 12.6 °F 30.36 in West 7.0 mph 14.0 mph 82% 0.00 in
19:54 17.0 °F 12.5 °F 30.37 in West 7.0 mph 16.0 mph 82% 0.00 in
19:59 16.9 °F 12.6 °F 30.36 in WNW 7.0 mph 13.0 mph 83% 0.00 in
20:04 16.8 °F 12.5 °F 30.36 in WNW 7.0 mph 12.0 mph 83% 0.00 in
20:09 16.7 °F 12.4 °F 30.36 in West 7.0 mph 14.0 mph 83% 0.00 in
20:14 16.7 °F 12.4 °F 30.36 in WNW 10.0 mph 14.0 mph 83% 0.00 in
20:19 16.6 °F 12.3 °F 30.36 in WNW 7.0 mph 14.0 mph 83% 0.00 in
20:24 16.6 °F 12.3 °F 30.36 in WNW 7.0 mph 14.0 mph 83% 0.00 in
20:29 16.7 °F 12.4 °F 30.36 in West 4.0 mph 13.0 mph 83% 0.00 in
20:34 16.8 °F 12.5 °F 30.36 in WNW 5.0 mph 12.0 mph 83% 0.00 in
20:39 16.9 °F 12.6 °F 30.37 in West 7.0 mph 12.0 mph 83% 0.00 in
20:44 16.9 °F 12.6 °F 30.37 in WNW 3.0 mph 11.0 mph 83% 0.00 in
20:49 16.9 °F 12.9 °F 30.37 in West 3.0 mph 9.0 mph 84% 0.00 in
20:54 17.0 °F 13.0 °F 30.37 in WNW 5.0 mph 9.0 mph 84% 0.00 in
20:59 16.8 °F 12.8 °F 30.37 in WNW 5.0 mph 9.0 mph 84% 0.00 in
21:04 16.7 °F 12.7 °F 30.37 in West 5.0 mph 9.0 mph 84% 0.00 in
21:09 16.7 °F 12.7 °F 30.37 in West 4.0 mph 9.0 mph 84% 0.00 in
21:14 16.8 °F 12.8 °F 30.37 in WNW 4.0 mph 7.0 mph 84% 0.00 in
21:19 16.9 °F 12.9 °F 30.38 in West 3.0 mph 8.0 mph 84% 0.00 in
21:24 17.0 °F 12.7 °F 30.38 in West 4.0 mph 8.0 mph 83% 0.00 in
21:29 17.0 °F 12.7 °F 30.38 in WSW 4.0 mph 7.0 mph 83% 0.00 in
21:34 17.2 °F 12.9 °F 30.38 in WNW 5.0 mph 6.0 mph 83% 0.00 in
21:39 17.3 °F 13.0 °F 30.38 in West 2.0 mph 6.0 mph 83% 0.00 in
21:44 17.3 °F 13.3 °F 30.38 in NW 4.0 mph 7.0 mph 84% 0.00 in
21:49 17.4 °F 13.4 °F 30.38 in WNW 4.0 mph 7.0 mph 84% 0.00 in
21:54 17.4 °F 13.4 °F 30.38 in West 5.0 mph 8.0 mph 84% 0.00 in
21:59 17.4 °F 13.4 °F 30.39 in WNW 4.0 mph 8.0 mph 84% 0.00 in
22:04 17.4 °F 13.4 °F 30.39 in WNW 3.0 mph 7.0 mph 84% 0.00 in
22:09 17.4 °F 13.4 °F 30.39 in WNW 3.0 mph 6.0 mph 84% 0.00 in
22:14 17.4 °F 13.4 °F 30.39 in WNW 3.0 mph 6.0 mph 84% 0.00 in
22:19 17.4 °F 13.4 °F 30.38 in WNW 3.0 mph 6.0 mph 84% 0.00 in
22:24 17.4 °F 13.4 °F 30.38 in WNW 3.0 mph 6.0 mph 84% 0.00 in
22:29 17.5 °F 13.5 °F 30.39 in NW 5.0 mph 6.0 mph 84% 0.00 in
22:34 17.5 °F 13.5 °F 30.38 in NW 1.0 mph 5.0 mph 84% 0.00 in
22:39 17.6 °F 13.6 °F 30.39 in WNW 5.0 mph 6.0 mph 84% 0.00 in
22:44 17.7 °F 13.4 °F 30.39 in WNW 3.0 mph 6.0 mph 83% 0.00 in
22:49 17.7 °F 13.4 °F 30.39 in West 2.0 mph 6.0 mph 83% 0.00 in
22:54 17.7 °F 13.7 °F 30.39 in WNW 2.0 mph 5.0 mph 84% 0.00 in
22:59 17.7 °F 13.7 °F 30.39 in West 1.0 mph 4.0 mph 84% 0.00 in
23:04 17.7 °F 13.7 °F 30.38 in WNW 2.0 mph 5.0 mph 84% 0.00 in
23:09 17.7 °F 13.7 °F 30.38 in WNW 2.0 mph 5.0 mph 84% 0.00 in
23:14 17.7 °F 13.7 °F 30.38 in WNW 2.0 mph 4.0 mph 84% 0.00 in
23:19 17.8 °F 13.8 °F 30.38 in WNW 2.0 mph 4.0 mph 84% 0.00 in
23:24 17.8 °F 14.1 °F 30.38 in NW 2.0 mph 4.0 mph 85% 0.00 in
23:29 17.9 °F 14.2 °F 30.38 in NW 2.0 mph 4.0 mph 85% 0.00 in
23:34 17.9 °F 14.2 °F 30.38 in Calm   3.0 mph 85% 0.00 in
23:39 17.9 °F 14.2 °F 30.38 in WNW 2.0 mph 4.0 mph 85% 0.00 in
23:44 17.9 °F 14.2 °F 30.38 in WNW 1.0 mph 3.0 mph 85% 0.00 in
23:49 17.9 °F 14.4 °F 30.38 in Calm   4.0 mph 86% 0.00 in
23:54 17.9 °F 14.4 °F 30.38 in West 1.0 mph 4.0 mph 86% 0.00 in
23:59 17.9 °F 14.4 °F 30.37 in West 1.0 mph 2.0 mph 86% 0.00 in
Buffalo, New York, USA
Compliments of Weather Underground - 2.5 mb